createdAt,value
2022-11-05T00:00:44.327Z,30.58
2022-11-05T00:01:35.315Z,30.30
2022-11-05T00:02:25.744Z,29.95
2022-11-05T00:03:16.283Z,29.45
2022-11-05T00:04:06.991Z,28.50
2022-11-05T00:04:57.583Z,28.90
2022-11-05T00:05:47.959Z,29.40
2022-11-05T00:06:38.991Z,31.05
2022-11-05T00:07:39.591Z,30.08
2022-11-05T00:08:30.484Z,28.62
2022-11-05T00:09:20.909Z,30.30
2022-11-05T00:10:05.299Z,29.60
2022-11-05T00:10:38.829Z,27.83
2022-11-05T00:11:16.858Z,30.58
2022-11-05T00:12:09.554Z,29.87
2022-11-05T00:12:59.881Z,29.92
2022-11-05T00:13:50.182Z,26.50
2022-11-05T00:14:40.440Z,29.87
2022-11-05T00:15:30.837Z,30.13
2022-11-05T00:16:21.258Z,27.45
2022-11-05T00:16:53.438Z,28.58
2022-11-05T00:17:25.400Z,29.42
2022-11-05T00:17:57.201Z,30.60
2022-11-05T00:18:29.471Z,30.45
2022-11-05T00:19:07.031Z,30.48
2022-11-05T00:19:38.857Z,29.63
2022-11-05T00:20:13.701Z,28.85
2022-11-05T00:20:45.597Z,28.30
2022-11-05T00:21:40.676Z,29.02
2022-11-05T00:22:31.517Z,29.08
2022-11-05T00:23:23.676Z,28.27
2022-11-05T00:24:27.740Z,26.85
2022-11-05T00:25:14.749Z,26.73
2022-11-05T00:25:55.296Z,27.02
2022-11-05T00:26:27.096Z,26.50
2022-11-05T00:26:59.507Z,27.10
2022-11-05T00:27:33.469Z,26.95
2022-11-05T00:28:05.308Z,26.65
2022-11-05T00:28:37.930Z,27.33
2022-11-05T00:29:10.532Z,28.12
2022-11-05T00:29:43.358Z,27.48
2022-11-05T00:30:18.540Z,26.92
2022-11-05T00:30:50.488Z,25.70
2022-11-05T00:31:22.363Z,26.37
2022-11-05T00:31:54.226Z,26.67
2022-11-05T00:32:26.093Z,26.05
2022-11-05T00:33:02.607Z,25.20
2022-11-05T00:33:34.523Z,25.25
2022-11-05T00:34:06.389Z,24.90
2022-11-05T00:34:38.228Z,25.37
2022-11-05T00:35:10.317Z,24.83
2022-11-05T00:35:42.136Z,24.73
2022-11-05T00:36:14.067Z,24.33
2022-11-05T00:36:45.989Z,25.00
2022-11-05T00:37:17.793Z,23.77
2022-11-05T00:37:50.601Z,25.00
2022-11-05T00:38:22.984Z,24.87
2022-11-05T00:38:54.840Z,25.10
2022-11-05T00:39:26.676Z,25.25
2022-11-05T00:39:58.689Z,24.58
2022-11-05T00:40:30.627Z,22.83
2022-11-05T00:41:02.560Z,23.75
2022-11-05T00:41:34.435Z,24.35
2022-11-05T00:42:24.801Z,25.33
2022-11-05T00:43:15.533Z,23.87
2022-11-05T00:44:06.214Z,20.85
2022-11-05T00:44:56.666Z,21.73
2022-11-05T00:45:29.734Z,21.75
2022-11-05T00:46:01.641Z,21.37
2022-11-05T00:46:33.471Z,22.30
2022-11-05T00:47:37.850Z,23.10
2022-11-05T00:48:28.182Z,19.95
2022-11-05T00:49:19.087Z,21.00
2022-11-05T00:49:50.923Z,19.70
2022-11-05T00:50:23.311Z,21.20
2022-11-05T00:50:55.224Z,21.10
2022-11-05T00:51:27.072Z,20.65
2022-11-05T00:52:17.591Z,20.92
2022-11-05T00:53:00.475Z,20.80
2022-11-05T00:53:32.639Z,20.62
2022-11-05T00:54:04.916Z,21.52
2022-11-05T00:54:36.736Z,21.42
2022-11-05T00:55:08.664Z,21.10
2022-11-05T00:55:42.489Z,20.55
2022-11-05T00:56:14.319Z,20.83
2022-11-05T00:56:46.118Z,21.15
2022-11-05T00:57:17.959Z,21.30
2022-11-05T00:57:50.113Z,20.62
2022-11-05T00:58:23.245Z,20.48
2022-11-05T00:58:56.328Z,17.17
2022-11-05T00:59:28.497Z,17.62
2022-11-05T01:00:00.378Z,17.80
2022-11-05T01:00:33.808Z,15.00
2022-11-05T01:01:06.265Z,15.38
2022-11-05T01:01:38.252Z,15.73
2022-11-05T01:02:10.302Z,14.05
2022-11-05T01:02:42.425Z,13.55
2022-11-05T01:03:16.585Z,13.40
2022-11-05T01:03:51.631Z,12.68
2022-11-05T01:04:23.652Z,12.10
2022-11-05T01:04:55.769Z,11.80
2022-11-05T01:05:28.629Z,12.15
2022-11-05T01:06:20.676Z,11.60
2022-11-05T01:06:52.479Z,11.00
2022-11-05T01:07:24.294Z,11.20
2022-11-05T01:07:56.313Z,11.07
2022-11-05T01:08:28.352Z,10.65
2022-11-05T01:09:00.199Z,11.68
2022-11-05T01:09:32.079Z,11.40
2022-11-05T01:10:04.497Z,12.23
2022-11-05T01:10:44.126Z,10.60
2022-11-05T01:11:34.351Z,11.15
2022-11-05T01:12:06.290Z,10.27
2022-11-05T01:12:38.112Z,10.45
2022-11-05T01:13:13.159Z,10.68
2022-11-05T01:13:45.298Z,10.10
2022-11-05T01:14:17.299Z,9.80
2022-11-05T01:14:49.181Z,10.35
2022-11-05T01:15:21.965Z,11.02
2022-11-05T01:15:54.437Z,11.02
2022-11-05T01:16:26.262Z,10.80
2022-11-05T01:16:58.098Z,10.40
2022-11-05T01:17:29.959Z,10.23
2022-11-05T01:18:01.802Z,11.75
2022-11-05T01:18:33.819Z,10.82
2022-11-05T01:19:07.483Z,10.52
2022-11-05T01:19:39.519Z,10.48
2022-11-05T01:20:12.300Z,10.30
2022-11-05T01:20:44.585Z,10.82
2022-11-05T01:21:16.802Z,11.35
2022-11-05T01:21:48.679Z,10.18
2022-11-05T01:22:20.532Z,10.85
2022-11-05T01:22:52.459Z,10.45
2022-11-05T01:23:24.334Z,10.65
2022-11-05T01:23:56.154Z,10.68
2022-11-05T01:24:28.140Z,10.63
2022-11-05T01:25:00.081Z,9.70
2022-11-05T01:25:31.928Z,8.93
2022-11-05T01:26:04.102Z,9.57
2022-11-05T01:26:35.930Z,8.80
2022-11-05T01:27:07.856Z,9.25
2022-11-05T01:27:40.003Z,9.25
2022-11-05T01:28:11.931Z,8.88
2022-11-05T01:28:43.831Z,9.32
2022-11-05T01:29:15.784Z,8.73
2022-11-05T01:29:47.685Z,8.07
2022-11-05T01:30:19.644Z,8.82
2022-11-05T01:30:56.533Z,8.63
2022-11-05T01:31:29.184Z,7.95
2022-11-05T01:32:01.021Z,7.97
2022-11-05T01:32:33.822Z,8.00
2022-11-05T01:33:05.917Z,8.60
2022-11-05T01:33:37.747Z,8.02
2022-11-05T01:34:09.588Z,7.37
2022-11-05T01:34:41.440Z,7.90
2022-11-05T01:35:15.713Z,7.03
2022-11-05T01:35:50.124Z,6.75
2022-11-05T01:36:22.044Z,8.27
2022-11-05T01:36:54.161Z,6.65
2022-11-05T01:37:25.971Z,7.00
2022-11-05T01:37:57.819Z,7.25
2022-11-05T01:38:29.639Z,7.15
2022-11-05T01:39:01.976Z,7.15
2022-11-05T01:39:33.913Z,7.40
2022-11-05T01:40:07.652Z,6.90
2022-11-05T01:40:42.884Z,7.37
2022-11-05T01:41:14.847Z,6.65
2022-11-05T01:41:47.049Z,6.50
2022-11-05T01:42:25.093Z,7.47
2022-11-05T01:42:56.931Z,7.10
2022-11-05T01:44:05.280Z,7.57
2022-11-05T01:44:52.302Z,7.05
2022-11-05T01:45:28.534Z,6.62
2022-11-05T01:46:00.750Z,6.53
2022-11-05T01:46:42.912Z,7.05
2022-11-05T01:47:44.411Z,7.18
2022-11-05T01:48:27.355Z,6.05
2022-11-05T01:49:10.590Z,7.45
2022-11-05T01:49:42.444Z,6.28
2022-11-05T01:50:41.926Z,6.53
2022-11-05T01:51:17.483Z,6.30
2022-11-05T01:51:51.336Z,6.87
2022-11-05T01:52:24.519Z,6.32
2022-11-05T01:53:11.947Z,7.45
2022-11-05T01:53:52.921Z,6.57
2022-11-05T01:54:29.586Z,6.43
2022-11-05T01:55:03.023Z,6.95
2022-11-05T01:55:39.567Z,6.55
2022-11-05T01:56:36.582Z,6.40
2022-11-05T01:57:11.105Z,6.40
2022-11-05T01:57:42.903Z,7.40
2022-11-05T01:58:19.497Z,6.18
2022-11-05T01:59:06.338Z,6.70
2022-11-05T01:59:43.293Z,6.53
2022-11-05T02:00:16.889Z,6.00
2022-11-05T02:00:49.085Z,6.72
2022-11-05T02:01:21.381Z,6.85
2022-11-05T02:01:54.307Z,6.12
2022-11-05T02:02:27.042Z,6.50
2022-11-05T02:02:59.126Z,6.60
2022-11-05T02:03:31.889Z,5.95
2022-11-05T02:04:10.111Z,6.30
2022-11-05T02:04:51.943Z,6.40
2022-11-05T02:05:23.955Z,6.18
2022-11-05T02:05:57.627Z,5.85
2022-11-05T02:06:31.880Z,5.95
2022-11-05T02:07:05.597Z,6.60
2022-11-05T02:07:37.482Z,5.97
2022-11-05T02:08:22.455Z,6.15
2022-11-05T02:09:06.494Z,6.12
2022-11-05T02:09:59.289Z,5.78
2022-11-05T02:10:32.042Z,6.47
2022-11-05T02:11:04.119Z,6.50
2022-11-05T02:11:35.965Z,6.28
2022-11-05T02:12:09.474Z,5.72
2022-11-05T02:12:44.899Z,6.50
2022-11-05T02:13:16.771Z,5.93
2022-11-05T02:13:49.824Z,6.45
2022-11-05T02:14:21.952Z,6.60
2022-11-05T02:14:53.870Z,6.60
2022-11-05T02:15:55.805Z,6.53
2022-11-05T02:17:03.725Z,5.32
2022-11-05T02:17:51.352Z,5.93
2022-11-05T02:18:29.173Z,7.55
2022-11-05T02:19:18.868Z,6.25
2022-11-05T02:20:31.430Z,5.75
2022-11-05T02:21:34.793Z,6.10
2022-11-05T02:22:34.422Z,5.90
2022-11-05T02:23:09.499Z,5.90
2022-11-05T02:23:59.833Z,5.70
2022-11-05T02:25:02.024Z,5.40
2022-11-05T02:25:51.842Z,6.05
2022-11-05T02:26:45.154Z,5.55
2022-11-05T02:27:26.356Z,5.53
2022-11-05T02:28:29.300Z,5.87
2022-11-05T02:29:07.047Z,5.80
2022-11-05T02:29:57.853Z,5.87
2022-11-05T02:30:41.366Z,6.05
2022-11-05T02:31:36.434Z,5.60
2022-11-05T02:32:31.728Z,5.15
2022-11-05T02:33:29.846Z,5.53
2022-11-05T02:34:27.330Z,5.37
2022-11-05T02:35:16.187Z,6.07
2022-11-05T02:36:25.215Z,4.93
2022-11-05T02:37:21.813Z,5.28
2022-11-05T02:38:06.500Z,5.45
2022-11-05T02:38:41.101Z,5.20
2022-11-05T02:39:40.617Z,5.05
2022-11-05T02:40:19.209Z,5.15
2022-11-05T02:41:08.738Z,4.90
2022-11-05T02:41:52.939Z,4.65
2022-11-05T02:42:52.390Z,5.18
2022-11-05T02:43:29.494Z,4.62
2022-11-05T02:44:28.320Z,4.35
2022-11-05T02:45:31.994Z,4.68
2022-11-05T02:46:12.337Z,3.97
2022-11-05T02:47:28.778Z,4.93
2022-11-05T02:48:14.088Z,5.10
2022-11-05T02:48:50.365Z,4.25
2022-11-05T02:49:56.227Z,4.10
2022-11-05T02:50:37.316Z,5.20
2022-11-05T02:51:20.660Z,4.40
2022-11-05T02:51:59.373Z,4.45
2022-11-05T02:53:00.396Z,4.37
2022-11-05T02:53:42.770Z,4.35
2022-11-05T02:54:24.611Z,4.32
2022-11-05T02:55:08.711Z,4.12
2022-11-05T02:55:59.326Z,4.03
2022-11-05T02:56:35.443Z,4.85
2022-11-05T02:57:07.302Z,4.10
2022-11-05T02:57:44.823Z,4.00
2022-11-05T02:58:16.936Z,5.07
2022-11-05T02:58:49.135Z,4.72
2022-11-05T02:59:21.001Z,4.87
2022-11-05T03:00:07.168Z,4.95
2022-11-05T03:00:57.818Z,4.62
2022-11-05T03:01:29.856Z,4.25
2022-11-05T03:02:03.427Z,4.75
2022-11-05T03:02:35.787Z,4.70
2022-11-05T03:03:36.577Z,4.60
2022-11-05T03:04:11.938Z,3.65
2022-11-05T03:04:43.781Z,4.60
2022-11-05T03:05:15.631Z,3.80
2022-11-05T03:06:22.462Z,3.80
2022-11-05T03:07:20.389Z,4.12
2022-11-05T03:08:01.506Z,3.17
2022-11-05T03:08:54.487Z,3.50
2022-11-05T03:09:26.594Z,2.35
2022-11-05T03:10:04.668Z,3.15
2022-11-05T03:10:57.914Z,2.85
2022-11-05T03:11:32.897Z,2.50
2022-11-05T03:12:29.036Z,5.72
2022-11-05T03:13:23.098Z,2.50
2022-11-05T03:14:20.498Z,2.12
2022-11-05T03:15:11.408Z,2.40
2022-11-05T03:15:57.249Z,1.90
2022-11-05T03:16:59.883Z,2.30
2022-11-05T03:17:52.502Z,1.80
2022-11-05T03:18:47.604Z,1.98
2022-11-05T03:19:39.946Z,2.12
2022-11-05T03:20:25.792Z,1.90
2022-11-05T03:21:17.972Z,1.65
2022-11-05T03:22:06.466Z,2.00
2022-11-05T03:23:00.658Z,2.03
2022-11-05T03:23:47.048Z,1.60
2022-11-05T03:24:28.360Z,1.95
2022-11-05T03:25:07.290Z,1.80
2022-11-05T03:25:53.826Z,1.90
2022-11-05T03:26:33.580Z,1.90
2022-11-05T03:27:23.863Z,1.87
2022-11-05T03:28:00.563Z,2.25
2022-11-05T03:28:36.557Z,2.08
2022-11-05T03:29:32.903Z,1.80
2022-11-05T03:30:10.624Z,1.85
2022-11-05T03:30:44.746Z,1.90
2022-11-05T03:31:18.322Z,1.52
2022-11-05T03:31:53.588Z,2.25
2022-11-05T03:32:27.287Z,1.70
2022-11-05T03:33:03.594Z,2.00
2022-11-05T03:33:38.581Z,1.95
2022-11-05T03:34:12.736Z,1.70
2022-11-05T03:34:51.721Z,1.75
2022-11-05T03:35:28.642Z,2.30
2022-11-05T03:36:06.458Z,1.65
2022-11-05T03:36:44.368Z,1.80
2022-11-05T03:37:20.134Z,1.90
2022-11-05T03:37:57.241Z,1.80
2022-11-05T03:38:34.174Z,1.83
2022-11-05T03:39:10.968Z,1.80
2022-11-05T03:39:47.526Z,1.87
2022-11-05T03:40:23.495Z,1.75
2022-11-05T03:40:59.643Z,1.77
2022-11-05T03:41:34.433Z,1.87
2022-11-05T03:42:09.939Z,1.50
2022-11-05T03:42:47.301Z,1.62
2022-11-05T03:43:22.175Z,1.83
2022-11-05T03:43:59.479Z,1.70
2022-11-05T03:44:36.612Z,1.87
2022-11-05T03:45:16.273Z,1.80
2022-11-05T03:45:53.854Z,1.83
2022-11-05T03:46:30.436Z,1.80
2022-11-05T03:47:06.918Z,1.90
2022-11-05T03:47:43.061Z,1.70
2022-11-05T03:48:16.896Z,1.80
2022-11-05T03:48:52.996Z,1.80
2022-11-05T03:49:33.190Z,1.75
2022-11-05T03:50:16.179Z,1.42
2022-11-05T03:50:59.620Z,1.58
2022-11-05T03:52:00.782Z,2.05
2022-11-05T03:52:40.178Z,1.60
2022-11-05T03:53:24.005Z,1.90
2022-11-05T03:54:02.643Z,1.75
2022-11-05T03:54:35.105Z,1.75
2022-11-05T03:55:07.396Z,1.83
2022-11-05T03:56:04.425Z,1.85
2022-11-05T03:56:42.441Z,1.67
2022-11-05T03:57:17.081Z,1.77
2022-11-05T03:57:51.596Z,1.80
2022-11-05T03:58:24.869Z,1.67
2022-11-05T03:58:59.392Z,1.55
2022-11-05T03:59:32.771Z,1.80
2022-11-05T04:00:08.377Z,1.75
2022-11-05T04:00:43.493Z,1.80
2022-11-05T04:01:16.270Z,1.87
2022-11-05T04:01:49.385Z,1.67
2022-11-05T04:02:25.915Z,1.90
2022-11-05T04:02:58.012Z,1.65
2022-11-05T04:03:36.212Z,1.50
2022-11-05T04:04:09.509Z,1.80
2022-11-05T04:04:41.763Z,1.37
2022-11-05T04:05:13.846Z,1.70
2022-11-05T04:06:06.058Z,1.80
2022-11-05T04:06:56.926Z,1.60
2022-11-05T04:07:47.320Z,1.83
2022-11-05T04:08:37.848Z,1.90
2022-11-05T04:09:29.236Z,1.60
2022-11-05T04:10:19.490Z,1.50
2022-11-05T04:11:09.936Z,1.80
2022-11-05T04:12:00.843Z,2.03
2022-11-05T04:12:51.257Z,1.80
2022-11-05T04:13:25.853Z,2.22
2022-11-05T04:13:57.695Z,2.55
2022-11-05T04:14:30.882Z,1.90
2022-11-05T04:15:02.974Z,1.85
2022-11-05T04:15:54.768Z,2.12
2022-11-05T04:16:45.175Z,2.00
2022-11-05T04:17:17.291Z,1.80
2022-11-05T04:17:49.116Z,1.83
2022-11-05T04:18:21.034Z,2.08
2022-11-05T04:18:52.866Z,1.80
2022-11-05T04:19:43.407Z,1.95
2022-11-05T04:20:33.934Z,2.17
2022-11-05T04:21:25.670Z,2.17
2022-11-05T04:22:16.003Z,1.83
2022-11-05T04:23:07.062Z,1.52
2022-11-05T04:23:57.510Z,1.83
2022-11-05T04:24:29.324Z,1.75
2022-11-05T04:25:01.131Z,1.70
2022-11-05T04:25:33.074Z,2.20
2022-11-05T04:26:05.022Z,1.50
2022-11-05T04:26:43.669Z,1.87
2022-11-05T04:27:15.547Z,1.92
2022-11-05T04:27:48.159Z,1.90
2022-11-05T04:28:20.295Z,1.92
2022-11-05T04:29:11.298Z,1.48
2022-11-05T04:30:01.721Z,1.70
2022-11-05T04:30:33.542Z,1.95
2022-11-05T04:31:05.479Z,1.80
2022-11-05T04:31:38.049Z,1.85
2022-11-05T04:32:09.876Z,1.70
2022-11-05T04:32:41.744Z,1.73
2022-11-05T04:33:15.810Z,1.92
2022-11-05T04:33:47.976Z,2.25
2022-11-05T04:34:21.989Z,1.55
2022-11-05T04:34:53.963Z,1.70
2022-11-05T04:35:28.094Z,2.03
2022-11-05T04:36:00.338Z,1.90
2022-11-05T04:36:32.164Z,2.00
2022-11-05T04:37:04.062Z,2.20
2022-11-05T04:37:35.889Z,2.20
2022-11-05T04:38:11.117Z,1.80
2022-11-05T04:38:43.001Z,1.92
2022-11-05T04:39:16.043Z,2.00
2022-11-05T04:39:47.858Z,1.80
2022-11-05T04:40:19.746Z,2.03
2022-11-05T04:40:51.532Z,1.73
2022-11-05T04:41:23.744Z,2.03
2022-11-05T04:41:55.567Z,2.03
2022-11-05T04:42:28.252Z,1.73
2022-11-05T04:43:01.005Z,2.15
2022-11-05T04:43:32.827Z,2.28
2022-11-05T04:44:04.666Z,1.90
2022-11-05T04:44:37.126Z,1.85
2022-11-05T04:45:09.018Z,1.75
2022-11-05T04:45:41.199Z,1.98
2022-11-05T04:46:13.073Z,2.25
2022-11-05T04:46:44.975Z,1.90
2022-11-05T04:47:16.804Z,2.10
2022-11-05T04:47:48.810Z,2.00
2022-11-05T04:48:20.719Z,2.20
2022-11-05T04:48:52.521Z,2.20
2022-11-05T04:49:24.368Z,1.80
2022-11-05T04:49:56.576Z,2.22
2022-11-05T04:50:28.579Z,2.05
2022-11-05T04:51:00.511Z,2.22
2022-11-05T04:51:32.369Z,2.05
2022-11-05T04:52:04.233Z,1.95
2022-11-05T04:52:36.199Z,2.45
2022-11-05T04:53:08.207Z,2.08
2022-11-05T04:53:40.221Z,2.08
2022-11-05T04:54:12.072Z,2.28
2022-11-05T04:54:44.135Z,2.40
2022-11-05T04:55:16.342Z,2.25
2022-11-05T04:55:48.163Z,2.28
2022-11-05T04:56:22.478Z,2.10
2022-11-05T04:56:54.276Z,2.25
2022-11-05T04:57:26.099Z,2.22
2022-11-05T04:57:57.936Z,2.28
2022-11-05T04:58:29.782Z,2.33
2022-11-05T04:59:01.637Z,2.33
2022-11-05T04:59:33.425Z,2.10
2022-11-05T05:00:07.409Z,2.55
2022-11-05T05:00:39.752Z,2.40
2022-11-05T05:01:14.657Z,2.28
2022-11-05T05:01:46.576Z,2.20
2022-11-05T05:02:18.469Z,2.20
2022-11-05T05:02:50.467Z,2.65
2022-11-05T05:03:22.333Z,2.60
2022-11-05T05:03:54.734Z,2.62
2022-11-05T05:04:26.562Z,2.30
2022-11-05T05:04:58.448Z,2.20
2022-11-05T05:05:30.652Z,2.20
2022-11-05T05:06:04.177Z,2.37
2022-11-05T05:06:36.485Z,1.92
2022-11-05T05:07:08.282Z,2.30
2022-11-05T05:07:41.145Z,2.28
2022-11-05T05:08:13.002Z,2.45
2022-11-05T05:08:46.808Z,2.60
2022-11-05T05:09:18.627Z,2.15
2022-11-05T05:09:50.608Z,2.40
2022-11-05T05:10:22.434Z,2.40
2022-11-05T05:10:54.306Z,2.33
2022-11-05T05:11:26.483Z,2.72
2022-11-05T05:11:58.325Z,2.22
2022-11-05T05:12:30.161Z,2.90
2022-11-05T05:13:01.969Z,2.10
2022-11-05T05:13:34.488Z,2.40
2022-11-05T05:14:06.331Z,2.30
2022-11-05T05:14:38.288Z,2.30
2022-11-05T05:15:10.124Z,2.37
2022-11-05T05:15:41.990Z,2.15
2022-11-05T05:16:25.295Z,2.25
2022-11-05T05:16:57.399Z,2.53
2022-11-05T05:17:29.207Z,2.22
2022-11-05T05:18:01.216Z,2.50
2022-11-05T05:18:33.489Z,2.70
2022-11-05T05:19:05.395Z,2.80
2022-11-05T05:19:57.167Z,2.40
2022-11-05T05:20:47.548Z,2.60
2022-11-05T05:21:39.725Z,2.58
2022-11-05T05:22:11.851Z,2.60
2022-11-05T05:22:43.694Z,2.97
2022-11-05T05:23:15.495Z,2.92
2022-11-05T05:23:48.560Z,2.95
2022-11-05T05:24:21.224Z,3.12
2022-11-05T05:24:53.263Z,3.10
2022-11-05T05:25:25.451Z,3.00
2022-11-05T05:26:00.505Z,2.58
2022-11-05T05:26:32.350Z,2.62
2022-11-05T05:27:04.200Z,3.00
2022-11-05T05:27:36.368Z,3.12
2022-11-05T05:28:08.183Z,2.45
2022-11-05T05:28:40.065Z,3.00
2022-11-05T05:29:12.441Z,3.12
2022-11-05T05:29:44.334Z,2.75
2022-11-05T05:30:16.296Z,2.90
2022-11-05T05:30:48.133Z,2.87
2022-11-05T05:31:20.837Z,3.25
2022-11-05T05:31:52.627Z,3.00
2022-11-05T05:32:25.889Z,2.65
2022-11-05T05:33:01.989Z,2.70
2022-11-05T05:33:33.874Z,2.60
2022-11-05T05:34:06.769Z,2.90
2022-11-05T05:34:38.571Z,3.17
2022-11-05T05:35:10.524Z,2.70
2022-11-05T05:35:42.326Z,3.12
2022-11-05T05:36:14.323Z,3.00
2022-11-05T05:36:46.211Z,3.05
2022-11-05T05:37:18.350Z,3.12
2022-11-05T05:37:55.213Z,3.08
2022-11-05T05:38:28.012Z,3.05
2022-11-05T05:38:59.876Z,3.12
2022-11-05T05:39:31.693Z,2.90
2022-11-05T05:40:03.558Z,2.83
2022-11-05T05:40:35.615Z,3.10
2022-11-05T05:41:07.427Z,2.95
2022-11-05T05:41:39.443Z,3.40
2022-11-05T05:42:12.130Z,2.70
2022-11-05T05:42:43.919Z,3.40
2022-11-05T05:43:15.799Z,2.90
2022-11-05T05:43:47.979Z,3.08
2022-11-05T05:44:19.881Z,3.22
2022-11-05T05:44:51.741Z,3.58
2022-11-05T05:45:24.215Z,3.42
2022-11-05T05:45:57.376Z,3.37
2022-11-05T05:46:29.209Z,3.00
2022-11-05T05:47:01.023Z,3.03
2022-11-05T05:47:32.869Z,3.10
2022-11-05T05:48:05.387Z,3.15
2022-11-05T05:48:37.498Z,3.37
2022-11-05T05:49:12.470Z,3.53
2022-11-05T05:49:44.560Z,3.15
2022-11-05T05:50:16.474Z,3.30
2022-11-05T05:51:05.104Z,3.40
2022-11-05T05:51:37.125Z,3.22
2022-11-05T05:52:08.959Z,3.40
2022-11-05T05:52:40.771Z,4.40
2022-11-05T05:53:12.950Z,3.83
2022-11-05T05:53:45.380Z,3.30
2022-11-05T05:54:17.542Z,3.70
2022-11-05T05:54:49.446Z,3.75
2022-11-05T05:55:21.338Z,3.20
2022-11-05T05:55:54.387Z,3.60
2022-11-05T05:56:26.237Z,3.42
2022-11-05T05:56:58.043Z,3.33
2022-11-05T05:57:29.885Z,3.20
2022-11-05T05:58:01.707Z,3.58
2022-11-05T05:58:37.043Z,3.15
2022-11-05T05:59:08.891Z,3.55
2022-11-05T05:59:41.017Z,2.90
2022-11-05T06:00:13.846Z,3.37
2022-11-05T06:00:46.351Z,3.28
2022-11-05T06:01:19.849Z,3.22
2022-11-05T06:01:52.278Z,3.22
2022-11-05T06:02:24.335Z,3.20
2022-11-05T06:02:56.618Z,3.58
2022-11-05T06:03:28.528Z,3.10
2022-11-05T06:04:00.382Z,3.12
2022-11-05T06:04:32.223Z,3.15
2022-11-05T06:05:04.262Z,3.20
2022-11-05T06:05:36.093Z,3.40
2022-11-05T06:06:15.411Z,3.33
2022-11-05T06:06:47.427Z,3.17
2022-11-05T06:07:19.222Z,3.40
2022-11-05T06:07:58.041Z,3.53
2022-11-05T06:08:30.301Z,3.30
2022-11-05T06:09:02.241Z,3.30
2022-11-05T06:09:34.060Z,3.67
2022-11-05T06:10:06.417Z,3.30
2022-11-05T06:10:38.447Z,3.40
2022-11-05T06:11:12.491Z,3.37
2022-11-05T06:11:44.540Z,3.40
2022-11-05T06:12:16.359Z,3.00
2022-11-05T06:12:48.266Z,3.30
2022-11-05T06:13:20.230Z,3.42
2022-11-05T06:13:52.079Z,3.53
2022-11-05T06:14:23.931Z,3.70
2022-11-05T06:14:55.846Z,3.47
2022-11-05T06:15:30.536Z,2.90
2022-11-05T06:16:08.500Z,3.08
2022-11-05T06:16:40.928Z,3.28
2022-11-05T06:17:12.739Z,3.55
2022-11-05T06:17:44.946Z,3.12
2022-11-05T06:18:16.871Z,3.45
2022-11-05T06:18:49.375Z,3.65
2022-11-05T06:19:21.294Z,3.55
2022-11-05T06:19:53.136Z,4.22
2022-11-05T06:20:24.968Z,3.90
2022-11-05T06:21:01.911Z,4.00
2022-11-05T06:21:34.809Z,5.03
2022-11-05T06:22:06.991Z,3.30
2022-11-05T06:22:39.220Z,3.55
2022-11-05T06:23:11.285Z,3.12
2022-11-05T06:23:45.207Z,3.55
2022-11-05T06:24:17.026Z,3.40
2022-11-05T06:24:48.889Z,4.00
2022-11-05T06:25:20.736Z,3.92
2022-11-05T06:25:52.541Z,3.55
2022-11-05T06:26:24.372Z,3.83
2022-11-05T06:26:56.197Z,3.80
2022-11-05T06:27:31.958Z,3.90
2022-11-05T06:28:03.905Z,3.47
2022-11-05T06:28:36.205Z,3.80
2022-11-05T06:29:08.618Z,4.12
2022-11-05T06:29:40.576Z,3.45
2022-11-05T06:30:13.276Z,4.10
2022-11-05T06:30:51.728Z,4.00
2022-11-05T06:31:24.026Z,3.47
2022-11-05T06:31:55.840Z,3.87
2022-11-05T06:32:27.832Z,3.50
2022-11-05T06:33:05.919Z,3.67
2022-11-05T06:33:38.351Z,3.53
2022-11-05T06:34:10.361Z,4.15
2022-11-05T06:34:42.176Z,3.87
2022-11-05T06:35:14.203Z,3.90
2022-11-05T06:35:46.346Z,3.67
2022-11-05T06:36:19.299Z,4.10
2022-11-05T06:36:51.115Z,3.80
2022-11-05T06:37:22.932Z,3.72
2022-11-05T06:37:59.487Z,3.55
2022-11-05T06:38:34.062Z,3.78
2022-11-05T06:39:09.734Z,3.90
2022-11-05T06:39:41.590Z,3.90
2022-11-05T06:40:13.428Z,4.05
2022-11-05T06:40:45.262Z,4.10
2022-11-05T06:41:17.107Z,4.18
2022-11-05T06:42:18.036Z,3.80
2022-11-05T06:42:41.512Z,3.92
2022-11-05T06:43:13.730Z,4.10
2022-11-05T06:43:46.206Z,3.80
2022-11-05T06:44:18.045Z,3.47
2022-11-05T06:44:50.060Z,3.90
2022-11-05T06:45:22.132Z,4.10
2022-11-05T06:45:54.858Z,4.12
2022-11-05T06:46:26.740Z,3.70
2022-11-05T06:46:58.614Z,3.90
2022-11-05T06:47:30.476Z,3.97
2022-11-05T06:48:02.328Z,3.78
2022-11-05T06:48:34.412Z,3.80
2022-11-05T06:49:06.530Z,3.45
2022-11-05T06:49:38.355Z,3.78
2022-11-05T06:50:10.238Z,3.75
2022-11-05T06:50:45.849Z,4.18
2022-11-05T06:51:17.711Z,3.83
2022-11-05T06:51:49.581Z,3.60
2022-11-05T06:52:21.392Z,3.50
2022-11-05T06:53:04.084Z,4.00
2022-11-05T06:53:36.544Z,3.80
2022-11-05T06:54:09.027Z,4.28
2022-11-05T06:54:42.396Z,3.78
2022-11-05T06:55:14.232Z,3.87
2022-11-05T06:55:47.945Z,3.58
2022-11-05T06:56:19.799Z,3.87
2022-11-05T06:56:51.659Z,3.55
2022-11-05T06:57:23.499Z,3.60
2022-11-05T06:57:55.782Z,3.83
2022-11-05T06:58:27.632Z,4.20
2022-11-05T06:58:59.525Z,3.78
2022-11-05T06:59:32.131Z,3.70
2022-11-05T07:00:07.819Z,4.32
2022-11-05T07:00:40.551Z,4.12
2022-11-05T07:01:12.569Z,4.65
2022-11-05T07:01:44.480Z,4.30
2022-11-05T07:02:18.020Z,4.35
2022-11-05T07:02:50.142Z,4.32
2022-11-05T07:03:21.984Z,3.95
2022-11-05T07:03:53.820Z,3.87
2022-11-05T07:04:25.673Z,4.07
2022-11-05T07:04:57.802Z,4.03
2022-11-05T07:05:29.810Z,3.58
2022-11-05T07:06:03.085Z,4.18
2022-11-05T07:06:37.102Z,4.03
2022-11-05T07:07:09.337Z,3.75
2022-11-05T07:07:42.964Z,4.10
2022-11-05T07:08:15.598Z,4.40
2022-11-05T07:08:47.447Z,4.15
2022-11-05T07:09:19.357Z,4.22
2022-11-05T07:09:52.775Z,4.10
2022-11-05T07:10:25.078Z,3.80
2022-11-05T07:10:57.005Z,3.90
2022-11-05T07:11:28.823Z,3.50
2022-11-05T07:12:00.651Z,3.80
2022-11-05T07:12:32.476Z,4.57
2022-11-05T07:13:08.152Z,4.40
2022-11-05T07:13:40.613Z,3.80
2022-11-05T07:14:12.517Z,3.78
2022-11-05T07:14:44.409Z,3.17
2022-11-05T07:15:16.282Z,4.20
2022-11-05T07:15:48.406Z,4.07
2022-11-05T07:16:20.238Z,3.42
2022-11-05T07:16:52.080Z,3.65
2022-11-05T07:17:23.961Z,3.87
2022-11-05T07:18:00.166Z,4.07
2022-11-05T07:18:32.005Z,3.62
2022-11-05T07:19:04.110Z,4.20
2022-11-05T07:19:35.934Z,3.65
2022-11-05T07:20:08.757Z,3.83
2022-11-05T07:20:40.645Z,3.90
2022-11-05T07:21:13.138Z,3.60
2022-11-05T07:21:45.948Z,3.72
2022-11-05T07:22:17.825Z,3.72
2022-11-05T07:22:49.670Z,3.60
2022-11-05T07:23:21.540Z,4.07
2022-11-05T07:23:53.355Z,3.80
2022-11-05T07:24:25.175Z,3.67
2022-11-05T07:24:57.026Z,3.72
2022-11-05T07:25:30.279Z,3.60
2022-11-05T07:26:02.332Z,3.10
2022-11-05T07:26:34.848Z,3.70
2022-11-05T07:27:06.717Z,3.25
2022-11-05T07:27:40.141Z,3.85
2022-11-05T07:28:12.155Z,3.87
2022-11-05T07:28:43.990Z,3.25
2022-11-05T07:29:15.865Z,3.30
2022-11-05T07:29:47.681Z,3.37
2022-11-05T07:30:19.501Z,3.45
2022-11-05T07:30:51.373Z,3.97
2022-11-05T07:31:23.534Z,3.72
2022-11-05T07:31:55.683Z,3.50
2022-11-05T07:32:27.507Z,3.58
2022-11-05T07:32:59.441Z,3.60
2022-11-05T07:33:36.363Z,3.40
2022-11-05T07:34:08.608Z,3.55
2022-11-05T07:34:40.516Z,3.40
2022-11-05T07:35:12.397Z,3.50
2022-11-05T07:35:44.227Z,3.67
2022-11-05T07:36:16.047Z,3.67
2022-11-05T07:36:47.877Z,3.60
2022-11-05T07:37:20.065Z,3.80
2022-11-05T07:37:54.065Z,3.58
2022-11-05T07:38:25.970Z,3.42
2022-11-05T07:39:00.523Z,3.42
2022-11-05T07:39:32.638Z,3.20
2022-11-05T07:40:05.337Z,3.35
2022-11-05T07:40:37.155Z,3.75
2022-11-05T07:41:08.986Z,3.30
2022-11-05T07:41:40.866Z,3.30
2022-11-05T07:42:13.925Z,3.60
2022-11-05T07:42:48.879Z,3.53
2022-11-05T07:43:20.707Z,3.37
2022-11-05T07:43:52.595Z,3.40
2022-11-05T07:44:24.833Z,3.60
2022-11-05T07:44:56.701Z,3.60
2022-11-05T07:45:30.671Z,3.87
2022-11-05T07:46:02.563Z,3.55
2022-11-05T07:46:34.791Z,3.55
2022-11-05T07:47:06.626Z,3.62
2022-11-05T07:47:47.929Z,3.55
2022-11-05T07:48:20.103Z,3.70
2022-11-05T07:48:51.920Z,3.75
2022-11-05T07:49:23.962Z,3.72
2022-11-05T07:49:55.797Z,3.87
2022-11-05T07:50:30.491Z,3.35
2022-11-05T07:51:02.363Z,3.35
2022-11-05T07:51:34.206Z,3.83
2022-11-05T07:52:06.055Z,3.83
2022-11-05T07:52:38.186Z,4.00
2022-11-05T07:53:13.572Z,3.50
2022-11-05T07:53:48.205Z,3.10
2022-11-05T07:54:20.042Z,3.45
2022-11-05T07:54:51.893Z,3.58
2022-11-05T07:55:23.700Z,3.17
2022-11-05T07:55:57.190Z,3.62
2022-11-05T07:56:28.970Z,3.28
2022-11-05T07:57:01.508Z,4.37
2022-11-05T07:57:43.682Z,2.90
2022-11-05T07:58:15.513Z,3.60
2022-11-05T07:58:47.685Z,3.40
2022-11-05T07:59:19.513Z,4.47
2022-11-05T07:59:51.364Z,3.60
2022-11-05T08:00:25.749Z,3.37
2022-11-05T08:00:58.050Z,3.08
2022-11-05T08:01:30.098Z,3.30
2022-11-05T08:02:02.413Z,3.40